Airfield :







YOU CAN JOIN US ON...

 
LOGIN :

Register | Disclaimer

   EN    FR    IT 

 









Legend :    VFR   Marginal VFR   IFR   Intensive IFR   Very Intensive IFR
Visi :
Ceiling :
>= 8 km
>= 3000ft
5 to 8 km
1000 to 3000 ft
1500m to 5 km
500 to 1000 ft
800 to 1500m
200 to 500 ft
< 800m
< 200 ft
Symbols :   Thunderstorms  Fog  Heavy snow  Heavy precipitations  Wind > 20 kt






- Airport Elevation : 555 ft


KORE - Orange Municipal

CURRENT METAR :
  • 292052Z AUTO 32014G19KT 10SM CLR 02/M15 A3004 RMK AO2 SLP179 T00221150 53008

EXPIRED METARs :
  • 291952Z AUTO 30011G17KT 10SM CLR 03/M13 A3003 RMK AO2 SLP175 T00281128
  • 291852Z AUTO 31012G16KT 10SM CLR 03/M12 A3001 RMK AO2 SLP170 T00331122
  • 291752Z AUTO 35010KT 10SM CLR 03/M13 A3002 RMK AO2 SLP171 T00281128 10028 21028 58006

TAF N/A



MET'MAP, your aeronautical weather chart ! - Copyright ORBIFLY December 2007 - Disclaimer

ORBIFLY MET'MAP TEAM :

Programming & Development : Alexandra Zaïnal
Concept & original design : Baudouin d'Aumeries
Assistance for programming : Marc-Olivier Méhu
Technical & hardware support : Manuel Goepfert

Contact : metmap@orbifly.com




SOURCES & CREDITS :

   NOAA